Time;durP1;ratioP1;P1;durP2;ratioP2;P2;SDS_P1;SDS_P2;PMS_P1;PMS_P2;Temp;Humidity;BMP_temperature;BMP_pressure;BME280_temperature;BME280_humidity;BME280_pressure;Samples;Min_cycle;Max_cycle;Signal;HPM_P1;HPM_P2
2023/05/04 00:01:43;;;;;;;2.75;2.50;;;11.40;94.60;;;;;;6003958;23;20148;-72
2023/05/04 00:04:09;;;;;;;2.67;2.53;;;11.40;94.40;;;;;;6003802;23;20155;-72
2023/05/04 00:06:34;;;;;;;2.53;2.40;;;11.30;94.70;;;;;;6003854;23;20235;-71
2023/05/04 00:09:18;;;;;;;2.40;2.25;;;11.30;94.90;;;;;;6003486;23;20152;-72
2023/05/04 00:11:44;;;;;;;3.65;2.65;;;11.30;94.70;;;;;;6006370;23;20153;-72
2023/05/04 00:14:10;;;;;;;8.23;2.88;;;11.30;94.80;;;;;;6004250;23;20667;-72
2023/05/04 00:16:36;;;;;;;2.45;2.35;;;11.20;95.00;;;;;;6006244;23;20578;-72
2023/05/04 00:19:01;;;;;;;2.92;2.72;;;11.20;95.10;;;;;;6004733;23;20161;-74
2023/05/04 00:21:27;;;;;;;2.75;2.65;;;11.20;95.20;;;;;;6006143;23;20232;-72
2023/05/04 00:23:53;;;;;;;2.10;2.00;;;11.20;95.00;;;;;;6005652;23;20153;-72
2023/05/04 00:26:18;;;;;;;2.60;2.50;;;11.30;95.10;;;;;;6003510;23;20231;-72
2023/05/04 00:28:44;;;;;;;2.20;2.10;;;11.30;95.10;;;;;;6004171;23;20160;-72
2023/05/04 00:31:10;;;;;;;2.90;2.55;;;11.30;95.00;;;;;;6003846;23;20319;-72
2023/05/04 00:33:35;;;;;;;2.50;2.38;;;11.30;95.20;;;;;;6003818;23;20280;-72
2023/05/04 00:36:04;;;;;;;2.15;2.00;;;11.30;95.40;;;;;;6003636;23;20508;-72
2023/05/04 00:38:30;;;;;;;2.50;2.40;;;11.30;95.30;;;;;;6003551;23;20149;-72
2023/05/04 00:40:57;;;;;;;2.15;2.05;;;11.30;95.30;;;;;;6003042;23;20159;-72
2023/05/04 00:43:24;;;;;;;2.28;1.77;;;11.30;95.40;;;;;;6003607;23;20186;-74
2023/05/04 00:45:50;;;;;;;2.40;2.25;;;11.30;95.50;;;;;;6004724;23;20216;-71
2023/05/04 00:48:16;;;;;;;2.42;2.25;;;11.30;95.40;;;;;;6006771;23;20510;-72
2023/05/04 00:50:42;;;;;;;2.13;1.90;;;11.40;95.10;;;;;;6007138;23;20211;-73
2023/05/04 00:53:10;;;;;;;2.55;2.40;;;11.30;95.00;;;;;;6007791;23;20161;-73
2023/05/04 00:55:39;;;;;;;2.65;2.53;;;11.20;94.90;;;;;;6007592;23;20503;-73
2023/05/04 00:58:07;;;;;;;3.17;2.58;;;11.20;94.70;;;;;;6006601;23;20207;-73
2023/05/04 01:00:34;;;;;;;3.13;2.58;;;11.10;95.00;;;;;;6006083;23;20608;-73
2023/05/04 01:03:00;;;;;;;2.40;2.30;;;11.10;95.40;;;;;;6007553;23;20152;-72
2023/05/04 01:05:32;;;;;;;3.20;2.88;;;11.00;95.90;;;;;;6007448;23;20159;-73
2023/05/04 01:08:06;;;;;;;4.97;3.50;;;11.00;95.70;;;;;;6007810;23;20143;-72
2023/05/04 01:10:52;;;;;;;2.65;2.55;;;11.00;95.90;;;;;;6007406;23;20179;-74
2023/05/04 01:13:21;;;;;;;3.20;3.00;;;11.00;96.00;;;;;;6007887;23;20224;-73
2023/05/04 01:15:48;;;;;;;5.22;3.33;;;11.00;96.10;;;;;;6007303;23;20183;-72
2023/05/04 01:18:15;;;;;;;3.25;2.95;;;11.00;96.40;;;;;;6007896;23;20573;-72
2023/05/04 01:20:41;;;;;;;3.63;3.33;;;11.00;96.40;;;;;;6006308;23;20165;-73
2023/05/04 01:23:07;;;;;;;3.60;3.03;;;11.00;96.20;;;;;;6008001;23;20213;-74
2023/05/04 01:25:41;;;;;;;3.08;2.83;;;11.00;95.90;;;;;;6007357;23;20176;-72
2023/05/04 01:28:12;;;;;;;3.50;2.95;;;11.10;95.90;;;;;;6007970;23;20605;-72
2023/05/04 01:30:52;;;;;;;3.17;2.97;;;11.00;96.00;;;;;;6006085;23;20177;-73
2023/05/04 01:33:19;;;;;;;3.50;3.20;;;11.00;96.00;;;;;;6008110;23;20148;-72
2023/05/04 01:35:46;;;;;;;3.35;3.15;;;11.00;96.10;;;;;;6005226;23;20251;-72
2023/05/04 01:38:11;;;;;;;3.30;3.10;;;11.10;95.80;;;;;;6007972;23;20571;-73
2023/05/04 01:40:37;;;;;;;3.42;3.13;;;11.00;95.40;;;;;;6006819;23;20163;-73
2023/05/04 01:43:03;;;;;;;3.05;2.85;;;11.10;95.40;;;;;;6005491;23;20188;-73
2023/05/04 01:45:29;;;;;;;2.83;2.63;;;11.10;95.30;;;;;;6006962;23;20153;-73
2023/05/04 01:47:54;;;;;;;3.47;3.25;;;11.10;95.30;;;;;;6007974;23;20168;-73
2023/05/04 01:50:20;;;;;;;5.68;2.83;;;11.10;95.40;;;;;;6007566;23;20633;-73
2023/05/04 01:52:45;;;;;;;3.33;3.10;;;11.10;95.30;;;;;;6007464;23;20163;-74
2023/05/04 01:55:11;;;;;;;3.85;2.92;;;11.10;95.20;;;;;;6007054;23;20152;-74
2023/05/04 01:57:37;;;;;;;4.28;3.10;;;11.00;94.90;;;;;;6005483;23;20263;-73
2023/05/04 02:00:03;;;;;;;3.03;2.83;;;11.10;95.00;;;;;;6007075;23;20605;-73
2023/05/04 02:02:28;;;;;;;3.30;3.00;;;11.10;95.00;;;;;;6006392;23;20737;-73
2023/05/04 02:04:54;;;;;;;3.00;2.83;;;11.20;95.10;;;;;;6007408;23;20162;-73
2023/05/04 02:07:20;;;;;;;3.50;3.30;;;11.20;95.30;;;;;;6007192;23;20157;-73
2023/05/04 02:09:46;;;;;;;2.83;2.63;;;11.20;95.30;;;;;;6005639;23;20192;-73
2023/05/04 02:12:11;;;;;;;5.90;3.03;;;11.20;95.20;;;;;;6007450;23;20155;-73
2023/05/04 02:14:37;;;;;;;3.35;3.05;;;11.20;95.10;;;;;;6007155;23;20157;-73
2023/05/04 02:17:03;;;;;;;3.10;2.45;;;11.30;95.00;;;;;;6006666;23;20481;-73
2023/05/04 02:19:28;;;;;;;2.35;2.15;;;11.30;94.80;;;;;;6007217;23;20152;-73
2023/05/04 02:21:54;;;;;;;3.13;2.83;;;11.30;94.80;;;;;;6005811;23;20255;-73
2023/05/04 02:24:20;;;;;;;4.35;2.95;;;11.20;94.90;;;;;;6006905;23;20156;-73
2023/05/04 02:26:46;;;;;;;2.30;2.08;;;11.10;94.90;;;;;;6005371;23;20547;-73
2023/05/04 02:29:11;;;;;;;2.90;2.70;;;11.10;94.90;;;;;;6006029;23;20248;-73
2023/05/04 02:31:37;;;;;;;2.42;2.33;;;11.00;95.20;;;;;;6006346;23;20279;-73
2023/05/04 02:34:03;;;;;;;2.03;1.98;;;10.90;95.60;;;;;;6007074;23;20574;-73
2023/05/04 02:36:28;;;;;;;2.45;2.25;;;10.80;95.80;;;;;;6006721;23;20153;-71
2023/05/04 02:38:54;;;;;;;2.17;2.08;;;10.80;96.10;;;;;;6007072;23;20167;-72
2023/05/04 02:44:05;;;;;;;2.17;2.03;;;10.70;96.10;;;;;;6005058;23;20972;-73
2023/05/04 02:46:31;;;;;;;2.33;2.22;;;10.80;95.70;;;;;;6007067;23;20160;-73
2023/05/04 02:48:57;;;;;;;1.60;1.60;;;10.70;95.70;;;;;;6006539;23;20538;-73
2023/05/04 02:51:22;;;;;;;2.08;1.95;;;10.70;95.60;;;;;;6006268;23;20177;-73
2023/05/04 02:53:48;;;;;;;2.42;2.20;;;10.70;95.60;;;;;;6006657;23;20227;-73
2023/05/04 02:56:14;;;;;;;1.38;1.38;;;10.60;95.80;;;;;;6007116;23;20160;-73
2023/05/04 02:58:40;;;;;;;2.10;2.00;;;10.60;95.90;;;;;;6005008;23;20167;-72
2023/05/04 03:01:06;;;;;;;1.40;1.40;;;10.60;95.80;;;;;;6005180;23;20156;-73
2023/05/04 03:03:31;;;;;;;1.92;1.73;;;10.60;95.60;;;;;;6004496;23;20155;-73
2023/05/04 03:05:57;;;;;;;1.20;1.20;;;10.60;95.60;;;;;;6003470;23;20159;-73
2023/05/04 03:08:22;;;;;;;3.20;2.17;;;10.50;95.90;;;;;;6003708;23;20156;-73
2023/05/04 03:10:48;;;;;;;2.03;1.85;;;10.60;95.90;;;;;;6003504;23;20183;-72
2023/05/04 03:13:15;;;;;;;1.75;1.63;;;10.50;96.00;;;;;;6003041;23;20676;-72
2023/05/04 03:15:41;;;;;;;1.35;1.35;;;10.50;96.00;;;;;;6001620;23;20223;-72
2023/05/04 03:18:06;;;;;;;1.38;1.27;;;10.40;96.40;;;;;;6005481;23;20212;-72
2023/05/04 03:20:32;;;;;;;1.97;1.80;;;10.50;96.30;;;;;;6006524;23;20626;-73
2023/05/04 03:22:57;;;;;;;1.35;1.35;;;10.50;96.40;;;;;;6005551;23;20164;-73
2023/05/04 03:25:23;;;;;;;1.13;1.13;;;10.50;96.30;;;;;;6006546;23;20619;-72
2023/05/04 03:27:49;;;;;;;1.48;1.48;;;10.50;96.20;;;;;;6006605;23;20232;-73
2023/05/04 03:30:15;;;;;;;2.03;0.90;;;10.50;96.10;;;;;;6006249;23;20184;-73
2023/05/04 03:32:40;;;;;;;0.85;0.85;;;10.50;96.00;;;;;;6006367;23;20623;-73
2023/05/04 03:35:06;;;;;;;2.33;1.13;;;10.50;96.10;;;;;;6006494;23;20176;-73
2023/05/04 03:37:32;;;;;;;1.08;1.08;;;10.40;96.30;;;;;;6006236;23;20597;-72
2023/05/04 03:39:58;;;;;;;2.65;1.08;;;10.50;96.30;;;;;;6004282;23;20164;-73
2023/05/04 03:42:23;;;;;;;0.93;0.93;;;10.40;96.60;;;;;;6006195;23;20197;-72
2023/05/04 03:44:49;;;;;;;1.70;1.60;;;10.40;96.60;;;;;;6005857;23;20177;-73
2023/05/04 03:47:15;;;;;;;1.03;1.03;;;10.30;97.00;;;;;;6006066;23;20168;-73
2023/05/04 03:49:40;;;;;;;2.80;1.30;;;10.30;97.00;;;;;;6006053;23;20176;-73
2023/05/04 03:52:06;;;;;;;1.13;1.13;;;10.30;97.30;;;;;;6005945;23;20149;-73
2023/05/04 03:54:32;;;;;;;1.80;1.50;;;10.30;97.40;;;;;;6006180;23;20560;-73
2023/05/04 03:56:57;;;;;;;1.75;1.65;;;10.30;97.70;;;;;;6005772;23;20221;-73
2023/05/04 03:59:23;;;;;;;2.58;1.95;;;10.30;97.50;;;;;;6006436;23;20161;-72
2023/05/04 04:01:50;;;;;;;1.63;1.53;;;10.40;97.60;;;;;;6005507;23;20656;-72
2023/05/04 04:04:15;;;;;;;1.80;1.38;;;10.40;97.90;;;;;;6004340;23;20161;-73
2023/05/04 04:06:41;;;;;;;1.50;1.40;;;10.40;98.00;;;;;;6006396;23;20149;-73
2023/05/04 04:09:07;;;;;;;1.13;1.13;;;10.40;97.90;;;;;;6006268;23;20231;-72
2023/05/04 04:11:33;;;;;;;1.30;1.20;;;10.40;97.90;;;;;;6006137;23;20518;-73
2023/05/04 04:13:58;;;;;;;1.13;1.13;;;10.50;97.90;;;;;;6005612;23;20602;-72
2023/05/04 04:16:24;;;;;;;1.10;1.10;;;10.50;98.00;;;;;;6005194;23;20162;-72
2023/05/04 04:18:50;;;;;;;1.23;1.17;;;10.60;97.80;;;;;;6002815;23;20160;-73
2023/05/04 04:21:16;;;;;;;1.58;1.50;;;10.60;97.40;;;;;;6002228;23;20197;-72
2023/05/04 04:23:42;;;;;;;1.05;1.00;;;10.60;97.40;;;;;;6004353;23;20152;-71
2023/05/04 04:26:07;;;;;;;1.55;1.48;;;10.70;97.10;;;;;;6002771;23;20490;-72
2023/05/04 04:28:33;;;;;;;1.25;1.25;;;10.70;97.00;;;;;;6005037;23;20153;-71
2023/05/04 04:30:59;;;;;;;3.10;1.48;;;10.80;96.80;;;;;;6005321;23;20538;-71
2023/05/04 04:33:25;;;;;;;2.58;1.52;;;10.80;96.60;;;;;;6004558;23;20588;-71
2023/05/04 04:35:51;;;;;;;1.45;1.45;;;10.80;96.80;;;;;;6005352;23;20163;-70
2023/05/04 04:38:17;;;;;;;1.27;1.23;;;10.80;96.70;;;;;;6002839;23;20257;-69
2023/05/04 04:40:43;;;;;;;1.52;1.52;;;10.90;96.60;;;;;;6004852;23;20161;-69
2023/05/04 04:43:10;;;;;;;5.57;1.40;;;10.90;96.60;;;;;;6005633;23;20152;-74
2023/05/04 04:45:36;;;;;;;1.67;1.58;;;10.90;96.80;;;;;;6003278;23;20263;-70
2023/05/04 04:48:02;;;;;;;1.30;1.30;;;10.90;97.00;;;;;;6004549;23;20643;-70
2023/05/04 04:50:28;;;;;;;1.55;1.48;;;10.90;96.80;;;;;;6003871;23;20188;-70
2023/05/04 04:52:54;;;;;;;1.20;1.20;;;10.90;96.70;;;;;;6004976;23;20165;-68
2023/05/04 04:55:22;;;;;;;1.20;1.15;;;11.00;96.70;;;;;;6004517;23;20265;-68
2023/05/04 04:57:49;;;;;;;1.08;1.08;;;11.00;96.50;;;;;;6000665;23;20165;-70
2023/05/04 05:00:15;;;;;;;2.55;1.33;;;11.00;96.70;;;;;;6002484;23;20522;-69
2023/05/04 05:02:42;;;;;;;1.42;1.40;;;11.00;96.80;;;;;;6004399;23;20515;-70
2023/05/04 05:05:08;;;;;;;1.75;1.60;;;11.00;97.10;;;;;;6001605;23;20165;-70
2023/05/04 05:07:35;;;;;;;1.55;1.33;;;11.00;97.30;;;;;;6005633;23;20503;-69
2023/05/04 05:10:01;;;;;;;1.83;1.70;;;11.00;97.40;;;;;;6006593;23;20195;-71
2023/05/04 05:12:26;;;;;;;3.53;1.70;;;11.00;97.20;;;;;;6006327;23;20509;-69
2023/05/04 05:14:52;;;;;;;1.33;1.33;;;11.00;97.20;;;;;;6006306;23;20224;-69
2023/05/04 05:17:19;;;;;;;1.33;1.23;;;11.10;97.20;;;;;;6006298;23;20160;-71
2023/05/04 05:19:45;;;;;;;0.95;0.95;;;11.10;97.10;;;;;;6006188;23;20163;-71
2023/05/04 05:22:11;;;;;;;1.25;1.15;;;11.10;97.30;;;;;;6004737;23;20240;-72
2023/05/04 05:24:37;;;;;;;1.63;1.52;;;11.10;97.40;;;;;;6006205;23;20179;-71
2023/05/04 05:27:03;;;;;;;1.48;1.48;;;11.10;97.50;;;;;;6006131;23;20153;-69
2023/05/04 05:29:28;;;;;;;3.10;1.63;;;11.20;97.20;;;;;;6005862;23;20188;-70
2023/05/04 05:31:54;;;;;;;1.42;1.38;;;11.20;97.20;;;;;;6006314;23;20504;-70
2023/05/04 05:34:20;;;;;;;2.53;1.55;;;11.30;97.10;;;;;;6006260;23;20157;-71
2023/05/04 05:36:47;;;;;;;2.38;1.50;;;11.30;97.10;;;;;;6006755;23;20156;-70
2023/05/04 05:39:12;;;;;;;1.25;1.25;;;11.30;97.40;;;;;;6008077;23;20153;-71
2023/05/04 05:41:38;;;;;;;1.77;1.67;;;11.30;97.40;;;;;;6007854;23;20236;-71
2023/05/04 05:44:04;;;;;;;3.42;1.20;;;11.40;97.20;;;;;;6007692;23;20160;-70
2023/05/04 05:46:30;;;;;;;1.25;1.25;;;11.40;96.80;;;;;;6007532;23;20179;-71
2023/05/04 05:48:55;;;;;;;1.80;1.63;;;11.40;97.10;;;;;;6008155;23;20164;-70
2023/05/04 05:51:21;;;;;;;3.33;1.63;;;11.50;97.00;;;;;;6007670;23;20182;-70
2023/05/04 05:53:48;;;;;;;1.60;1.50;;;11.50;96.90;;;;;;6007669;23;20551;-70
2023/05/04 05:56:14;;;;;;;1.35;1.30;;;11.50;96.80;;;;;;6005977;23;20164;-69
2023/05/04 05:58:40;;;;;;;1.70;1.60;;;11.60;96.60;;;;;;6007313;23;20210;-69
2023/05/04 06:01:06;;;;;;;2.65;1.45;;;11.70;96.40;;;;;;6005717;23;20165;-70
2023/05/04 06:03:31;;;;;;;1.70;1.60;;;11.70;96.10;;;;;;6005561;23;20160;-70
2023/05/04 06:05:57;;;;;;;1.23;1.23;;;11.70;95.70;;;;;;6007567;23;20149;-71
2023/05/04 06:08:23;;;;;;;1.88;1.77;;;11.80;95.10;;;;;;6007361;23;20152;-71
2023/05/04 06:10:50;;;;;;;2.08;1.90;;;11.90;95.00;;;;;;6007419;23;20290;-70
2023/05/04 06:13:16;;;;;;;1.15;1.15;;;12.00;95.30;;;;;;6005679;23;20167;-71
2023/05/04 06:15:49;;;;;;;1.85;1.75;;;12.10;95.10;;;;;;6007458;23;20153;-70
2023/05/04 06:18:15;;;;;;;1.30;1.30;;;12.20;94.80;;;;;;6007123;23;20144;-71
2023/05/04 06:20:40;;;;;;;1.60;1.50;;;12.30;95.00;;;;;;6007136;23;20156;-70
2023/05/04 06:23:06;;;;;;;9.43;1.10;;;12.30;93.90;;;;;;6007177;23;20183;-71
2023/05/04 06:25:32;;;;;;;1.73;1.42;;;12.50;93.80;;;;;;6007335;23;20164;-71
2023/05/04 06:27:57;;;;;;;1.65;1.55;;;12.60;93.20;;;;;;6007322;23;20232;-69
2023/05/04 06:30:23;;;;;;;1.20;1.20;;;12.80;92.60;;;;;;6007277;23;20283;-71
2023/05/04 06:32:49;;;;;;;2.10;1.27;;;12.90;92.50;;;;;;6007181;23;20614;-70
2023/05/04 06:35:15;;;;;;;1.33;1.20;;;13.10;91.30;;;;;;6005466;23;20271;-73
2023/05/04 06:37:41;;;;;;;1.35;1.00;;;13.30;90.80;;;;;;6007109;23;20587;-71
2023/05/04 06:40:07;;;;;;;1.48;1.23;;;13.50;90.50;;;;;;6006891;23;20156;-68
2023/05/04 06:42:32;;;;;;;1.88;1.17;;;13.60;89.80;;;;;;6007145;23;20149;-69
2023/05/04 06:44:58;;;;;;;1.85;1.17;;;13.70;89.10;;;;;;6007391;23;20155;-69
2023/05/04 06:47:24;;;;;;;1.27;1.17;;;13.70;88.80;;;;;;6006596;23;20559;-70
2023/05/04 06:49:49;;;;;;;1.90;0.85;;;13.80;88.70;;;;;;6006828;23;20659;-70
2023/05/04 06:52:15;;;;;;;1.33;1.25;;;13.80;87.80;;;;;;6007188;23;20163;-71
2023/05/04 06:54:41;;;;;;;1.23;1.23;;;13.70;87.90;;;;;;6007028;23;20163;-71
2023/05/04 06:57:07;;;;;;;1.38;1.17;;;13.70;87.70;;;;;;6006868;23;20266;-69
2023/05/04 06:59:32;;;;;;;1.02;1.00;;;13.40;86.70;;;;;;6007002;23;20243;-70
2023/05/04 07:01:58;;;;;;;1.10;1.10;;;13.10;86.70;;;;;;6007188;23;20616;-70
2023/05/04 07:04:24;;;;;;;1.05;1.05;;;12.90;88.50;;;;;;6006880;23;20221;-72
2023/05/04 07:06:50;;;;;;;1.27;1.17;;;12.70;89.80;;;;;;6006634;23;20160;-70
2023/05/04 07:09:19;;;;;;;1.10;1.10;;;12.60;90.40;;;;;;6007066;23;20518;-70
2023/05/04 07:11:47;;;;;;;1.02;1.02;;;12.40;90.60;;;;;;6006856;23;20201;-70
2023/05/04 07:14:13;;;;;;;1.35;1.35;;;12.40;90.20;;;;;;6005261;23;20156;-70
2023/05/04 07:16:39;;;;;;;1.60;1.15;;;12.30;90.50;;;;;;6006908;23;20213;-70
2023/05/04 07:19:04;;;;;;;2.45;1.05;;;12.20;91.00;;;;;;6007081;23;20156;-71
2023/05/04 07:21:30;;;;;;;1.08;1.08;;;12.20;91.40;;;;;;6007050;23;20156;-70
2023/05/04 07:23:56;;;;;;;1.45;1.30;;;12.20;90.90;;;;;;6007008;23;20153;-71
2023/05/04 07:26:22;;;;;;;0.93;0.82;;;12.10;91.30;;;;;;6006840;23;20157;-70
2023/05/04 07:28:47;;;;;;;1.00;1.00;;;12.10;91.60;;;;;;6006889;23;20148;-71
2023/05/04 07:31:14;;;;;;;1.25;1.13;;;12.10;91.60;;;;;;6006844;23;20184;-70
2023/05/04 07:33:40;;;;;;;1.20;1.10;;;12.20;91.70;;;;;;6005242;23;20203;-70
2023/05/04 07:36:06;;;;;;;1.55;1.33;;;12.10;91.60;;;;;;6006450;23;20180;-70
2023/05/04 07:38:32;;;;;;;1.50;1.25;;;12.10;91.00;;;;;;6007159;23;20156;-71
2023/05/04 07:40:58;;;;;;;1.08;1.00;;;12.10;91.00;;;;;;6006774;23;20634;-71
2023/05/04 07:43:24;;;;;;;1.33;1.33;;;12.10;91.40;;;;;;6006696;23;20186;-70
2023/05/04 07:45:52;;;;;;;0.93;0.93;;;12.00;91.00;;;;;;6006418;23;20160;-69
2023/05/04 07:48:18;;;;;;;1.10;1.10;;;12.00;91.50;;;;;;6006899;23;20168;-70
2023/05/04 07:50:43;;;;;;;1.23;1.08;;;11.80;90.60;;;;;;6006307;23;20183;-70
2023/05/04 07:53:09;;;;;;;1.38;1.17;;;11.70;91.10;;;;;;6006490;23;20235;-69
2023/05/04 07:55:35;;;;;;;0.98;0.98;;;11.70;91.30;;;;;;6006274;23;20579;-69
2023/05/04 07:58:01;;;;;;;1.08;1.08;;;11.70;91.30;;;;;;6004623;23;20168;-71
2023/05/04 08:00:27;;;;;;;1.58;1.58;;;11.60;91.50;;;;;;6006232;23;20491;-71
2023/05/04 08:02:53;;;;;;;0.93;0.93;;;11.70;91.80;;;;;;6006394;23;20176;-70
2023/05/04 08:05:18;;;;;;;1.25;1.23;;;11.70;92.60;;;;;;6006161;23;20159;-70
2023/05/04 08:07:45;;;;;;;2.95;1.38;;;11.70;92.60;;;;;;6006289;23;20192;-70
2023/05/04 08:10:11;;;;;;;1.02;1.02;;;11.70;92.30;;;;;;6004630;23;20208;-70
2023/05/04 08:12:39;;;;;;;0.82;0.82;;;11.60;92.60;;;;;;6006303;23;20152;-70
2023/05/04 08:15:06;;;;;;;0.93;0.93;;;11.60;92.30;;;;;;6004644;23;20271;-70
2023/05/04 08:17:33;;;;;;;1.10;0.90;;;11.70;92.80;;;;;;6004820;23;20189;-70
2023/05/04 08:20:00;;;;;;;1.05;1.05;;;11.60;92.80;;;;;;6004393;23;20191;-71
2023/05/04 08:22:26;;;;;;;1.40;1.30;;;11.70;92.40;;;;;;6004403;23;20164;-70
2023/05/04 08:24:51;;;;;;;1.05;1.05;;;11.60;92.40;;;;;;6006168;23;20228;-70
2023/05/04 08:27:17;;;;;;;1.40;1.38;;;11.60;92.30;;;;;;6006249;23;20617;-70
2023/05/04 08:29:43;;;;;;;1.33;1.33;;;11.70;92.80;;;;;;6005832;23;20156;-70
2023/05/04 08:32:08;;;;;;;1.13;1.10;;;11.70;92.40;;;;;;6006025;23;20152;-71
2023/05/04 08:34:35;;;;;;;2.25;1.17;;;11.80;92.10;;;;;;6005996;23;20156;-70
2023/05/04 08:37:01;;;;;;;1.13;1.13;;;11.80;92.00;;;;;;6004130;23;20606;-70
2023/05/04 08:39:27;;;;;;;1.08;1.08;;;11.80;92.30;;;;;;6006074;23;20153;-70
2023/05/04 08:41:52;;;;;;;1.48;1.33;;;11.90;92.20;;;;;;6005892;23;20601;-70
2023/05/04 08:44:18;;;;;;;1.05;1.05;;;11.90;92.60;;;;;;6006046;23;20165;-70
2023/05/04 08:46:51;;;;;;;1.35;1.25;;;11.90;92.20;;;;;;6006046;23;20153;-70
2023/05/04 08:49:18;;;;;;;2.45;1.58;;;12.00;92.20;;;;;;6006263;23;20515;-70
2023/05/04 08:51:46;;;;;;;1.38;1.38;;;12.20;92.40;;;;;;6005964;23;20188;-70
2023/05/04 08:54:12;;;;;;;1.40;1.30;;;12.30;91.20;;;;;;6006100;23;20179;-70
2023/05/04 08:56:39;;;;;;;1.60;1.50;;;12.40;90.80;;;;;;6006505;23;20174;-70
2023/05/04 08:59:08;;;;;;;1.05;1.05;;;12.60;90.80;;;;;;6006045;23;20916;-70
2023/05/04 09:01:36;;;;;;;3.00;1.67;;;12.80;90.70;;;;;;6006104;23;20227;-70
2023/05/04 09:04:03;;;;;;;1.23;1.00;;;13.00;89.80;;;;;;6006117;23;20457;-70
2023/05/04 09:06:30;;;;;;;1.77;0.95;;;13.10;88.80;;;;;;6006465;23;20168;-70
2023/05/04 09:08:56;;;;;;;1.00;1.00;;;13.20;87.30;;;;;;6006178;23;20511;-71
2023/05/04 09:11:22;;;;;;;0.95;0.95;;;13.30;86.60;;;;;;6006384;23;20198;-71
2023/05/04 09:13:48;;;;;;;1.65;1.35;;;13.40;86.80;;;;;;6007749;23;20148;-71
2023/05/04 09:16:15;;;;;;;1.50;1.40;;;13.40;87.10;;;;;;6007907;23;20163;-71
2023/05/04 09:18:43;;;;;;;1.70;1.60;;;13.50;86.50;;;;;;6008210;23;20152;-70
2023/05/04 09:21:09;;;;;;;1.20;0.98;;;13.60;86.40;;;;;;6007908;23;20160;-70
2023/05/04 09:23:49;;;;;;;2.97;1.23;;;13.70;84.70;;;;;;6007620;23;20156;-71
2023/05/04 09:26:29;;;;;;;1.42;1.42;;;13.60;84.50;;;;;;6006406;23;20520;-70
2023/05/04 09:28:55;;;;;;;1.35;1.35;;;13.60;85.30;;;;;;6007868;23;20173;-70
2023/05/04 09:31:22;;;;;;;1.80;1.70;;;13.70;85.10;;;;;;6007635;23;20192;-70
2023/05/04 09:33:48;;;;;;;1.25;1.25;;;13.70;84.40;;;;;;6006212;23;20156;-70
2023/05/04 09:36:20;;;;;;;1.63;1.48;;;13.60;85.20;;;;;;6007596;23;20153;-69
2023/05/04 09:38:46;;;;;;;1.80;1.70;;;13.60;85.00;;;;;;6006045;23;20168;-71
2023/05/04 09:41:12;;;;;;;1.63;1.63;;;13.70;84.50;;;;;;6005998;23;20506;-69
2023/05/04 09:43:42;;;;;;;1.60;1.50;;;13.70;84.70;;;;;;6007042;23;20232;-70
2023/05/04 09:46:17;;;;;;;2.00;1.90;;;13.60;84.70;;;;;;6006578;23;20152;-71
2023/05/04 09:48:54;;;;;;;2.05;1.85;;;13.60;84.80;;;;;;6006848;23;20168;-69
2023/05/04 09:51:22;;;;;;;1.67;1.58;;;13.60;84.80;;;;;;6005486;23;20267;-70
2023/05/04 09:53:49;;;;;;;2.30;1.92;;;13.60;85.20;;;;;;6006345;23;20232;-70
2023/05/04 09:56:46;;;;;;;1.98;1.95;;;13.60;85.70;;;;;;6007173;23;20149;-70
2023/05/04 09:59:12;;;;;;;5.13;2.33;;;13.70;85.40;;;;;;6005404;23;20149;-70
2023/05/04 10:01:38;;;;;;;1.67;1.60;;;13.90;86.20;;;;;;6005696;23;20161;-70
2023/05/04 10:04:05;;;;;;;2.92;1.90;;;14.00;86.20;;;;;;6006730;23;20153;-70
2023/05/04 10:06:31;;;;;;;2.35;2.17;;;14.20;85.90;;;;;;6005271;23;20165;-72
2023/05/04 10:09:00;;;;;;;2.75;2.35;;;14.20;84.40;;;;;;6007206;23;20181;-71
2023/05/04 10:11:27;;;;;;;2.15;2.00;;;14.30;84.80;;;;;;6007573;23;20192;-72
2023/05/04 10:13:56;;;;;;;2.42;2.22;;;14.30;83.20;;;;;;6007309;23;20500;-72
2023/05/04 10:16:34;;;;;;;2.50;2.30;;;14.20;83.60;;;;;;6007056;23;20155;-72
2023/05/04 10:19:09;;;;;;;2.42;2.22;;;14.00;84.40;;;;;;6007155;23;20149;-71
2023/05/04 10:21:37;;;;;;;2.28;2.08;;;14.00;85.00;;;;;;6005338;23;20175;-71
2023/05/04 10:24:30;;;;;;;3.45;2.28;;;14.00;85.40;;;;;;6005840;23;20161;-72
2023/05/04 10:27:26;;;;;;;3.42;2.33;;;14.00;84.90;;;;;;6001882;23;20928;-72
2023/05/04 10:29:53;;;;;;;3.53;2.17;;;14.10;85.10;;;;;;6004132;23;20199;-71
2023/05/04 10:32:22;;;;;;;2.20;2.05;;;14.20;84.80;;;;;;6004153;23;20161;-71
2023/05/04 10:34:48;;;;;;;2.28;2.17;;;14.20;83.40;;;;;;6004506;23;20251;-72
2023/05/04 10:37:18;;;;;;;2.38;2.28;;;14.30;84.70;;;;;;6006361;23;20619;-71
2023/05/04 10:39:54;;;;;;;2.97;2.78;;;14.50;84.60;;;;;;6004130;23;20613;-72
2023/05/04 10:42:21;;;;;;;3.08;2.63;;;14.60;84.00;;;;;;6006719;23;20156;-72
2023/05/04 10:44:54;;;;;;;4.03;2.90;;;14.80;83.10;;;;;;6004771;23;20171;-70
2023/05/04 10:47:34;;;;;;;3.20;2.75;;;15.00;83.10;;;;;;6004712;23;20216;-71
2023/05/04 10:50:13;;;;;;;5.28;3.00;;;15.20;82.90;;;;;;6006525;23;20184;-72
2023/05/04 10:52:52;;;;;;;3.20;2.85;;;15.50;81.50;;;;;;6006698;23;20563;-72
2023/05/04 10:55:19;;;;;;;3.05;2.85;;;15.80;81.20;;;;;;6004480;23;20188;-71
2023/05/04 10:57:55;;;;;;;3.28;2.30;;;15.90;79.30;;;;;;6006295;23;20153;-71
2023/05/04 11:00:23;;;;;;;2.90;2.53;;;16.00;78.00;;;;;;6005851;23;20231;-71
2023/05/04 11:02:49;;;;;;;3.05;2.80;;;15.90;77.80;;;;;;6006278;23;20578;-72
2023/05/04 11:05:19;;;;;;;3.78;2.45;;;15.60;78.30;;;;;;6005372;23;20156;-73
2023/05/04 11:07:49;;;;;;;3.30;2.63;;;15.10;79.40;;;;;;6005729;23;20170;-72
2023/05/04 11:10:23;;;;;;;4.68;2.88;;;15.20;79.70;;;;;;6006002;23;20180;-70
2023/05/04 11:12:49;;;;;;;3.35;3.05;;;15.30;80.30;;;;;;6005834;23;20152;-70
2023/05/04 11:15:15;;;;;;;2.80;2.60;;;15.30;79.70;;;;;;6004926;23;20624;-70
2023/05/04 11:17:51;;;;;;;6.45;2.85;;;15.30;79.70;;;;;;6006366;23;20156;-72
2023/05/04 11:20:26;;;;;;;2.85;2.70;;;15.30;80.10;;;;;;6006822;23;20140;-71
2023/05/04 11:22:53;;;;;;;3.47;2.97;;;15.40;80.40;;;;;;6005574;23;20167;-70
2023/05/04 11:25:29;;;;;;;3.40;2.92;;;15.40;80.30;;;;;;6005623;23;20148;-71
2023/05/04 11:27:56;;;;;;;3.50;2.72;;;15.40;80.00;;;;;;6005903;23;20196;-71
2023/05/04 11:30:30;;;;;;;3.13;2.72;;;15.50;80.30;;;;;;6006130;23;20184;-72
2023/05/04 11:32:58;;;;;;;3.58;3.25;;;15.60;81.10;;;;;;6005437;23;20200;-70
2023/05/04 11:35:24;;;;;;;3.10;2.78;;;15.60;80.40;;;;;;6003664;23;20171;-72
2023/05/04 11:37:50;;;;;;;5.75;3.15;;;15.60;80.00;;;;;;6005597;23;20251;-70
2023/05/04 11:40:18;;;;;;;3.08;2.85;;;15.60;79.20;;;;;;6005160;23;20212;-72
2023/05/04 11:42:45;;;;;;;4.85;3.20;;;15.50;80.40;;;;;;6003229;23;20188;-70
2023/05/04 11:45:20;;;;;;;3.42;3.13;;;15.40;81.00;;;;;;6005975;23;20216;-72
2023/05/04 11:47:47;;;;;;;3.65;3.22;;;15.30;81.10;;;;;;6006037;23;20168;-70
2023/05/04 11:50:14;;;;;;;3.67;3.35;;;15.20;81.00;;;;;;6006417;23;20192;-70
2023/05/04 11:52:41;;;;;;;3.63;3.25;;;15.20;81.10;;;;;;6005717;23;20287;-71
2023/05/04 11:55:12;;;;;;;4.13;3.70;;;15.20;81.30;;;;;;6005078;23;20159;-71
2023/05/04 11:57:38;;;;;;;3.17;2.97;;;15.20;81.40;;;;;;6004489;23;20865;-72
2023/05/04 12:00:05;;;;;;;3.15;2.95;;;15.20;81.60;;;;;;6005757;23;20156;-72
2023/05/04 12:02:30;;;;;;;3.03;2.83;;;15.20;81.50;;;;;;6006510;23;20156;-72
2023/05/04 12:04:56;;;;;;;2.38;2.25;;;15.30;81.70;;;;;;6006223;23;20281;-72
2023/05/04 12:07:22;;;;;;;4.07;3.33;;;15.30;81.50;;;;;;6005302;23;20149;-70
2023/05/04 12:09:48;;;;;;;4.65;2.92;;;15.30;81.50;;;;;;6004976;23;20163;-71
2023/05/04 12:12:20;;;;;;;3.88;3.08;;;15.40;81.20;;;;;;6005651;23;20153;-71
2023/05/04 12:14:57;;;;;;;3.53;3.22;;;15.40;80.50;;;;;;6004428;23;20636;-73
2023/05/04 12:17:23;;;;;;;3.67;3.28;;;15.40;79.90;;;;;;6006233;23;20224;-70
2023/05/04 12:19:55;;;;;;;3.97;3.42;;;15.40;80.20;;;;;;6006178;23;20184;-70
2023/05/04 12:22:28;;;;;;;3.05;2.80;;;15.40;80.50;;;;;;6006078;23;20165;-71
2023/05/04 12:24:57;;;;;;;3.13;2.80;;;15.40;80.70;;;;;;6005257;23;20227;-71
2023/05/04 12:27:24;;;;;;;4.45;2.95;;;15.50;80.10;;;;;;6006127;23;20181;-71
2023/05/04 12:29:50;;;;;;;4.20;3.58;;;15.60;79.90;;;;;;6005356;23;20514;-71
2023/05/04 12:32:16;;;;;;;4.82;2.92;;;15.70;80.10;;;;;;6006881;23;20169;-71
2023/05/04 12:34:42;;;;;;;4.43;3.63;;;15.80;79.80;;;;;;6006006;23;20152;-71
2023/05/04 12:37:07;;;;;;;3.75;3.35;;;16.00;79.90;;;;;;6005452;23;20153;-71
2023/05/04 12:39:33;;;;;;;4.22;3.80;;;16.20;78.30;;;;;;6004914;23;20204;-72
2023/05/04 12:41:59;;;;;;;5.07;3.50;;;16.30;77.60;;;;;;6005257;23;20157;-70
2023/05/04 12:44:26;;;;;;;4.03;3.20;;;16.30;76.70;;;;;;6005858;23;20153;-70
2023/05/04 12:46:52;;;;;;;3.30;3.05;;;16.40;77.20;;;;;;6007358;23;20612;-70
2023/05/04 12:49:18;;;;;;;4.13;3.20;;;16.40;77.40;;;;;;6007271;23;20144;-71
2023/05/04 12:51:44;;;;;;;4.28;3.75;;;16.60;77.30;;;;;;6005324;23;20236;-71